createdAt,value
2023-02-06T08:05:09.011Z,24.00
2023-02-06T08:07:14.902Z,21.57
2023-02-06T08:09:17.516Z,20.33
2023-02-06T08:11:20.639Z,18.60
2023-02-06T08:13:22.291Z,19.27
2023-02-06T08:15:25.170Z,17.30
2023-02-06T08:17:28.075Z,15.13
2023-02-06T08:19:29.781Z,17.80
2023-02-06T08:21:31.405Z,17.00
2023-02-06T08:23:33.287Z,19.20
2023-02-06T08:25:35.421Z,15.50
2023-02-06T08:27:37.373Z,15.20
2023-02-06T08:29:42.660Z,13.50
2023-02-06T08:31:44.953Z,13.03
2023-02-06T08:33:46.984Z,12.07
2023-02-06T08:35:49.048Z,11.23
2023-02-06T08:37:50.767Z,12.23
2023-02-06T08:39:52.503Z,13.40
2023-02-06T08:41:54.187Z,12.50
2023-02-06T08:43:58.486Z,11.33
2023-02-06T08:46:00.211Z,12.30
2023-02-06T08:48:01.927Z,12.67
2023-02-06T08:50:03.958Z,13.03
2023-02-06T08:52:06.001Z,11.33
2023-02-06T08:54:11.248Z,11.10
2023-02-06T08:56:13.881Z,11.07
2023-02-06T08:58:15.556Z,11.57
2023-02-06T09:00:17.831Z,11.53
2023-02-06T09:02:19.544Z,12.60
2023-02-06T09:04:21.567Z,12.07
2023-02-06T09:06:23.714Z,11.70
2023-02-06T09:08:25.428Z,11.60
2023-02-06T09:10:28.195Z,11.03
2023-02-06T09:12:30.070Z,11.17
2023-02-06T09:14:32.096Z,10.63
2023-02-06T09:16:34.108Z,10.73
2023-02-06T09:18:36.455Z,10.33
2023-02-06T09:20:38.340Z,11.97
2023-02-06T09:22:40.094Z,11.80
2023-02-06T09:24:42.085Z,13.33
2023-02-06T09:26:58.528Z,12.20
2023-02-06T09:29:05.735Z,13.33
2023-02-06T09:31:08.426Z,12.10
2023-02-06T09:33:10.347Z,14.17
2023-02-06T09:35:12.085Z,13.13
2023-02-06T09:37:13.815Z,11.73
2023-02-06T09:39:15.489Z,12.83
2023-02-06T09:41:46.352Z,11.63
2023-02-06T09:43:54.468Z,12.37
2023-02-06T09:46:01.439Z,12.40
2023-02-06T09:48:25.269Z,11.67
2023-02-06T09:50:41.009Z,9.47
2023-02-06T09:53:02.168Z,12.83
2023-02-06T09:55:10.077Z,13.77
2023-02-06T09:57:20.434Z,8.00
2023-02-06T09:59:29.670Z,9.00
2023-02-06T10:01:50.175Z,9.03
2023-02-06T10:04:01.327Z,8.63
2023-02-06T10:06:21.921Z,10.23
2023-02-06T10:08:44.480Z,8.20
2023-02-06T10:10:58.477Z,11.67
2023-02-06T10:13:15.659Z,10.00
2023-02-06T10:15:24.769Z,12.33
2023-02-06T10:17:32.586Z,9.07
2023-02-06T10:19:46.667Z,9.33
2023-02-06T10:22:15.041Z,9.57
2023-02-06T10:24:29.853Z,9.50
2023-02-06T10:26:34.706Z,9.00
2023-02-06T10:28:36.787Z,8.73
2023-02-06T10:31:07.279Z,9.23
2023-02-06T10:33:39.918Z,10.50
2023-02-06T10:36:06.050Z,12.80
2023-02-06T10:38:26.210Z,9.27
2023-02-06T10:40:35.176Z,9.27
2023-02-06T10:42:57.449Z,7.20
2023-02-06T10:45:19.331Z,10.63
2023-02-06T10:47:34.048Z,15.23
2023-02-06T10:49:41.931Z,9.67
2023-02-06T10:51:49.200Z,7.17
2023-02-06T10:54:01.324Z,7.00
2023-02-06T10:56:08.816Z,6.33
2023-02-06T10:58:19.326Z,6.97
2023-02-06T11:00:26.026Z,7.20
2023-02-06T11:02:36.116Z,4.90
2023-02-06T11:04:47.307Z,12.57
2023-02-06T11:06:49.542Z,6.60
2023-02-06T11:08:51.334Z,5.23
2023-02-06T11:10:54.789Z,5.57
2023-02-06T11:13:09.297Z,6.73
2023-02-06T11:15:45.075Z,5.60
2023-02-06T11:17:47.162Z,5.40
2023-02-06T11:19:51.468Z,8.20
2023-02-06T11:22:04.517Z,5.77
2023-02-06T11:24:11.600Z,6.70
2023-02-06T11:26:19.092Z,4.80
2023-02-06T11:28:23.040Z,6.20
2023-02-06T11:30:55.462Z,5.37
2023-02-06T11:33:04.812Z,7.37
2023-02-06T11:35:31.564Z,7.27
2023-02-06T11:37:40.747Z,6.20
2023-02-06T11:39:42.503Z,6.50
2023-02-06T11:42:00.611Z,5.80
2023-02-06T11:44:06.678Z,5.90
2023-02-06T11:46:11.458Z,5.97
2023-02-06T11:48:33.990Z,5.57
2023-02-06T11:50:37.495Z,5.60
2023-02-06T11:52:41.136Z,5.90
2023-02-06T11:54:54.778Z,5.37
2023-02-06T11:56:57.759Z,5.97
2023-02-06T11:59:06.966Z,6.20
2023-02-06T12:01:18.102Z,6.27
2023-02-06T12:03:35.552Z,7.40
2023-02-06T12:05:42.490Z,6.70
2023-02-06T12:07:53.023Z,6.43
2023-02-06T12:09:54.819Z,6.60
2023-02-06T12:12:08.393Z,7.13
2023-02-06T12:14:20.756Z,6.50
2023-02-06T12:16:24.225Z,9.30
2023-02-06T12:18:29.439Z,7.40
2023-02-06T12:20:37.740Z,8.50
2023-02-06T12:22:45.819Z,7.47
2023-02-06T12:24:51.395Z,7.17
2023-02-06T12:26:55.187Z,7.20
2023-02-06T12:29:13.015Z,6.10
2023-02-06T12:31:32.395Z,6.90
2023-02-06T12:33:44.110Z,6.50
2023-02-06T12:35:51.727Z,6.00
2023-02-06T12:38:00.142Z,6.40
2023-02-06T12:40:02.179Z,5.50
2023-02-06T12:42:20.786Z,5.50
2023-02-06T12:44:45.323Z,3.90
2023-02-06T12:46:54.680Z,4.80
2023-02-06T12:48:56.299Z,3.90
2023-02-06T12:51:16.159Z,6.37
2023-02-06T12:53:45.686Z,5.10
2023-02-06T12:56:00.707Z,4.90
2023-02-06T12:58:03.185Z,7.77
2023-02-06T13:00:23.179Z,5.23
2023-02-06T13:02:58.431Z,5.00
2023-02-06T13:05:05.680Z,7.90
2023-02-06T13:07:13.149Z,6.20
2023-02-06T13:09:24.146Z,4.80
2023-02-06T13:11:39.039Z,6.37
2023-02-06T13:13:41.787Z,5.33
2023-02-06T13:15:51.898Z,7.37
2023-02-06T13:17:55.724Z,7.93
2023-02-06T13:20:05.796Z,5.57
2023-02-06T13:22:10.183Z,4.83
2023-02-06T13:24:16.466Z,6.23
2023-02-06T13:26:18.319Z,8.90
2023-02-06T13:28:23.191Z,9.50
2023-02-06T13:30:31.406Z,4.80
2023-02-06T13:32:43.739Z,9.60
2023-02-06T13:34:48.572Z,4.80
2023-02-06T13:36:52.697Z,4.97
2023-02-06T13:38:56.547Z,3.30
2023-02-06T13:41:16.302Z,7.37
2023-02-06T13:43:23.356Z,10.20
2023-02-06T13:45:29.260Z,4.87
2023-02-06T13:48:02.952Z,15.67
2023-02-06T13:50:37.974Z,20.83
2023-02-06T13:52:51.018Z,6.37
2023-02-06T13:55:11.600Z,7.20
2023-02-06T13:57:31.594Z,4.80
2023-02-06T13:59:44.752Z,4.20
2023-02-06T14:01:46.789Z,4.03
2023-02-06T14:03:51.350Z,4.27
2023-02-06T14:06:05.472Z,4.93
2023-02-06T14:08:13.212Z,9.23
2023-02-06T14:10:53.615Z,8.83
2023-02-06T14:13:15.647Z,3.93
2023-02-06T14:15:41.192Z,4.37
2023-02-06T14:17:50.019Z,6.20
2023-02-06T14:20:02.719Z,4.10
2023-02-06T14:22:49.173Z,4.20
2023-02-06T14:25:28.571Z,4.53
2023-02-06T14:27:30.309Z,4.70
2023-02-06T14:29:50.851Z,3.40
2023-02-06T14:32:11.428Z,5.60
2023-02-06T14:34:21.857Z,3.33
2023-02-06T14:36:52.300Z,3.80
2023-02-06T14:39:08.231Z,3.60
2023-02-06T14:41:10.698Z,4.03
2023-02-06T14:43:22.776Z,3.10
2023-02-06T14:45:33.797Z,2.90
2023-02-06T14:47:43.231Z,2.80
2023-02-06T14:49:45.670Z,3.40
2023-02-06T14:51:50.812Z,4.33
2023-02-06T14:54:04.039Z,6.23
2023-02-06T14:56:26.444Z,4.27
2023-02-06T14:58:30.355Z,4.40
2023-02-06T15:00:33.165Z,4.13
2023-02-06T15:02:36.932Z,4.60
2023-02-06T15:04:46.674Z,4.10
2023-02-06T15:06:56.099Z,4.10
2023-02-06T15:08:58.257Z,3.73
2023-02-06T15:11:03.525Z,3.00
2023-02-06T15:13:05.363Z,3.93
2023-02-06T15:15:25.859Z,3.50
2023-02-06T15:17:27.610Z,3.40
2023-02-06T15:19:32.809Z,3.90
2023-02-06T15:21:34.610Z,4.13
2023-02-06T15:23:42.259Z,3.30
2023-02-06T15:26:13.963Z,3.83
2023-02-06T15:28:21.703Z,3.10
2023-02-06T15:30:26.475Z,3.00
2023-02-06T15:32:38.139Z,3.53
2023-02-06T15:34:39.875Z,3.23
2023-02-06T15:36:41.632Z,2.70
2023-02-06T15:38:43.549Z,3.47
2023-02-06T15:40:47.906Z,3.03
2023-02-06T15:42:51.100Z,3.27
2023-02-06T15:44:52.944Z,2.70
2023-02-06T15:46:56.631Z,3.43
2023-02-06T15:48:59.256Z,3.33
2023-02-06T15:51:13.505Z,3.33
2023-02-06T15:53:20.333Z,3.30
2023-02-06T15:55:28.870Z,2.60
2023-02-06T15:57:34.690Z,2.23
2023-02-06T15:59:40.375Z,2.30
2023-02-06T16:01:43.340Z,2.23
2023-02-06T16:03:48.476Z,2.30
2023-02-06T16:05:51.366Z,2.40
2023-02-06T16:07:53.253Z,2.13
2023-02-06T16:10:13.851Z,2.07
2023-02-06T16:12:16.756Z,2.27
2023-02-06T16:14:57.697Z,2.47
2023-02-06T16:17:24.247Z,3.10
2023-02-06T16:19:44.771Z,7.77
2023-02-06T16:22:04.553Z,16.17
2023-02-06T16:24:16.505Z,13.47
2023-02-06T16:26:27.020Z,11.90
2023-02-06T16:28:29.280Z,14.27
2023-02-06T16:30:34.996Z,23.87
2023-02-06T16:32:36.909Z,9.80
2023-02-06T16:34:44.987Z,5.80
2023-02-06T16:36:46.848Z,4.30
2023-02-06T16:39:02.839Z,3.20
2023-02-06T16:41:28.405Z,2.50
2023-02-06T16:43:31.235Z,2.90
2023-02-06T16:45:32.944Z,2.20
2023-02-06T16:47:34.849Z,2.40
2023-02-06T16:49:36.560Z,3.20
2023-02-06T16:51:40.360Z,3.60
2023-02-06T16:53:42.727Z,4.00
2023-02-06T16:55:44.643Z,4.60
2023-02-06T16:57:48.575Z,4.43
2023-02-06T16:59:50.776Z,3.10
2023-02-06T17:01:52.521Z,2.53
2023-02-06T17:03:55.096Z,2.60
2023-02-06T17:05:57.393Z,2.67
2023-02-06T17:07:59.325Z,3.43
2023-02-06T17:10:01.852Z,4.37
2023-02-06T17:12:03.663Z,4.77
2023-02-06T17:14:06.021Z,7.10
2023-02-06T17:16:10.509Z,9.00
2023-02-06T17:18:14.662Z,6.90
2023-02-06T17:20:33.479Z,4.90
2023-02-06T17:22:35.302Z,5.50
2023-02-06T17:24:38.493Z,3.47
2023-02-06T17:26:40.202Z,4.30
2023-02-06T17:28:42.405Z,4.20
2023-02-06T17:30:45.626Z,3.03
2023-02-06T17:32:47.761Z,3.10
2023-02-06T17:34:51.349Z,3.20
2023-02-06T17:36:54.317Z,3.80
2023-02-06T17:38:58.888Z,4.27
2023-02-06T17:41:00.868Z,3.90
2023-02-06T17:43:04.901Z,3.50
2023-02-06T17:45:07.101Z,3.10
2023-02-06T17:47:08.983Z,4.13
2023-02-06T17:49:10.980Z,3.30
2023-02-06T17:51:12.858Z,3.90
2023-02-06T17:53:14.857Z,3.90
2023-02-06T17:55:16.933Z,4.13
